Terminal Aerodrome Forecast
Issued by NWS

Home | Current Version | Previous Version | Graphics & Text | Print | Product List | Glossary On
Versions: 1 2 3 4 5 6 7 8 9 10 11 12 13 14 15 16 17 18 19 20 21 22 23 24 25 26 27 28 29 30 31 32 33 34 35
000
FTUS43 KLOT 151100
TAFORD
TAF
KORD 151132Z 1512/1618 22005KT P6SM VCSH SCT050 BKN070
     FM151500 23006KT P6SM -SHRA BKN040 BKN080 BKN120
     FM151900 34007KT 6SM -RA SCT010 BKN015 OVC035
     FM152200 35010KT P6SM SCT012 BKN020 BKN040
     FM160100 33007KT P6SM SCT015=

USA.gov is the U.S. government's official web portal to all federal, state and local government web resources and services.